Time;durP1;ratioP1;P1;durP2;ratioP2;P2;SDS_P1;SDS_P2;PMS_P1;PMS_P2;Temp;Humidity;BMP_temperature;BMP_pressure;BME280_temperature;BME280_humidity;BME280_pressure;Samples;Min_cycle;Max_cycle;Signal;HPM_P1;HPM_P2
2022/07/06 00:01:32;;;;;;;5.80;3.45;;;;;;;14.29;64.09;102517.78;5010989;28;20121;-47
2022/07/06 00:03:58;;;;;;;6.65;3.10;;;;;;;14.24;64.13;102515.00;5009284;28;20050;-48
2022/07/06 00:06:23;;;;;;;8.63;3.85;;;;;;;14.25;64.19;102510.66;5010538;28;20033;-47
2022/07/06 00:08:49;;;;;;;5.20;3.60;;;;;;;14.20;64.62;102514.84;5012354;28;20034;-48
2022/07/06 00:11:14;;;;;;;7.57;3.45;;;;;;;14.15;64.77;102516.41;5009956;28;20030;-47
2022/07/06 00:13:40;;;;;;;5.88;3.40;;;;;;;14.19;64.53;102518.31;5013158;28;20389;-46
2022/07/06 00:16:05;;;;;;;7.13;3.95;;;;;;;14.16;64.57;102512.97;5011865;28;20029;-48
2022/07/06 00:18:30;;;;;;;6.45;3.70;;;;;;;14.18;65.00;102527.00;5011200;28;20029;-46
2022/07/06 00:20:56;;;;;;;6.25;3.85;;;;;;;14.15;64.78;102517.31;5010594;28;20029;-48
2022/07/06 00:23:21;;;;;;;5.97;4.10;;;;;;;14.13;64.89;102520.72;5012629;28;20477;-47
2022/07/06 00:25:48;;;;;;;5.68;3.53;;;;;;;14.08;64.51;102526.69;5011813;28;20033;-47
2022/07/06 00:28:13;;;;;;;6.88;3.50;;;;;;;14.06;64.39;102525.75;5011592;28;20500;-46
2022/07/06 00:30:39;;;;;;;5.80;3.47;;;;;;;14.02;64.31;102521.22;5011460;28;20029;-47
2022/07/06 00:33:04;;;;;;;5.60;3.67;;;;;;;13.96;64.47;102514.84;5010920;28;20028;-46
2022/07/06 00:35:30;;;;;;;6.03;4.03;;;;;;;13.97;64.48;102517.53;5012761;28;20120;-46
2022/07/06 00:37:55;;;;;;;5.50;4.07;;;;;;;13.93;64.39;102523.50;5012705;28;20113;-47
2022/07/06 00:40:21;;;;;;;7.38;3.97;;;;;;;13.91;64.81;102515.56;5008969;28;20034;-46
2022/07/06 00:42:48;;;;;;;6.10;3.80;;;;;;;13.89;64.47;102521.63;5010740;28;20049;-47
2022/07/06 00:45:15;;;;;;;7.72;3.92;;;;;;;13.85;65.00;102522.34;5011986;28;20060;-46
2022/07/06 00:47:41;;;;;;;5.70;3.90;;;;;;;13.84;64.89;102525.78;5011818;28;20045;-55
2022/07/06 00:50:17;;;;;;;6.85;4.15;;;;;;;13.79;64.92;102524.72;5012207;28;20485;-55
2022/07/06 00:53:03;;;;;;;7.40;4.35;;;;;;;13.77;65.50;102526.38;5010802;28;20266;-55
2022/07/06 00:55:31;;;;;;;7.45;4.28;;;;;;;13.77;65.21;102518.53;5009128;28;20042;-55
2022/07/06 00:57:57;;;;;;;6.30;4.10;;;;;;;13.72;65.49;102521.88;5012087;28;20397;-55
2022/07/06 01:00:25;;;;;;;8.25;4.00;;;;;;;13.71;65.32;102522.69;5010164;28;20030;-55
2022/07/06 01:02:52;;;;;;;5.95;3.75;;;;;;;13.67;65.51;102515.56;5010322;28;20029;-55
2022/07/06 01:05:18;;;;;;;5.88;3.92;;;;;;;13.64;65.13;102519.78;5009193;28;20069;-55
2022/07/06 01:07:46;;;;;;;6.45;4.00;;;;;;;13.59;65.19;102522.25;5010279;28;20145;-55
2022/07/06 01:10:13;;;;;;;6.72;4.30;;;;;;;13.54;65.08;102515.91;5007880;28;20501;-55
2022/07/06 01:12:40;;;;;;;6.25;4.28;;;;;;;13.48;65.57;102523.56;5008890;28;20026;-55
2022/07/06 01:15:09;;;;;;;6.13;4.35;;;;;;;13.43;65.68;102512.91;5011357;28;20476;-55
2022/07/06 01:17:35;;;;;;;5.70;3.95;;;;;;;13.41;65.43;102509.31;5010681;28;20037;-46
2022/07/06 01:20:14;;;;;;;6.43;3.97;;;;;;;13.34;65.88;102518.69;5010204;28;20152;-46
2022/07/06 01:22:40;;;;;;;6.03;4.22;;;;;;;13.31;66.96;102515.00;5010187;28;20041;-47
2022/07/06 01:25:07;;;;;;;7.88;4.72;;;;;;;13.30;67.02;102510.63;5010985;28;20025;-46
2022/07/06 01:27:36;;;;;;;8.48;4.57;;;;;;;13.32;67.61;102517.66;5011624;28;20511;-46
2022/07/06 01:30:02;;;;;;;;;;;;;;;13.41;65.37;102516.28;5011814;28;20224;-45
2022/07/06 01:32:27;;;;;;;9.65;4.90;;;;;;;13.36;67.17;102514.38;5007066;28;19920;-47
2022/07/06 01:34:53;;;;;;;7.63;4.90;;;;;;;13.37;67.30;102515.28;5010889;28;20034;-46
2022/07/06 01:37:18;;;;;;;8.82;4.97;;;;;;;13.36;66.90;102514.38;5011473;28;20041;-46
2022/07/06 01:39:43;;;;;;;7.32;4.47;;;;;;;13.37;67.00;102508.31;5010422;28;20030;-46
2022/07/06 01:42:09;;;;;;;7.28;4.65;;;;;;;13.36;67.35;102511.75;4998913;28;20124;-47
2022/07/06 01:44:34;;;;;;;8.15;4.90;;;;;;;13.37;67.02;102515.28;5011069;28;20556;-46
2022/07/06 01:46:59;;;;;;;9.43;5.18;;;;;;;13.34;67.44;102513.44;5008980;28;20034;-47
2022/07/06 01:49:25;;;;;;;7.88;4.90;;;;;;;13.32;67.37;102515.06;5009205;28;20025;-46
2022/07/06 01:51:50;;;;;;;8.13;4.63;;;;;;;13.32;67.73;102511.56;5011003;28;20036;-46
2022/07/06 01:54:15;;;;;;;8.35;4.97;;;;;;;13.29;67.64;102509.69;5009506;28;20037;-47
2022/07/06 01:56:40;;;;;;;7.82;5.15;;;;;;;13.28;67.71;102504.41;5009719;28;20040;-49
2022/07/06 01:59:06;;;;;;;7.90;5.13;;;;;;;13.29;67.64;102507.09;5009909;28;20032;-46
2022/07/06 02:01:31;;;;;;;6.90;5.07;;;;;;;13.26;67.38;102512.19;5008588;28;20489;-46
2022/07/06 02:03:56;;;;;;;6.75;4.80;;;;;;;13.21;67.72;102508.53;5006811;28;20076;-46
2022/07/06 02:06:22;;;;;;;8.48;5.25;;;;;;;13.17;68.05;102512.72;5007850;28;20121;-46
2022/07/06 02:08:48;;;;;;;12.43;5.05;;;;;;;13.17;67.44;102517.09;5008538;28;20037;-47
2022/07/06 02:11:13;;;;;;;6.63;4.45;;;;;;;13.14;67.31;102514.34;5009262;28;20061;-45
2022/07/06 02:13:39;;;;;;;9.43;5.53;;;;;;;13.11;67.81;102514.25;5009588;28;20030;-46
2022/07/06 02:16:04;;;;;;;7.00;5.07;;;;;;;13.11;68.09;102514.25;5009248;28;20056;-46
2022/07/06 02:18:31;;;;;;;9.27;5.47;;;;;;;13.08;68.39;102520.22;5010557;28;21105;-46
2022/07/06 02:20:56;;;;;;;8.02;5.13;;;;;;;13.09;67.98;102515.88;5009904;28;20061;-46
2022/07/06 02:23:22;;;;;;;7.40;5.35;;;;;;;13.08;67.88;102516.69;5008331;28;20463;-46
2022/07/06 02:25:47;;;;;;;8.80;5.50;;;;;;;13.07;68.18;102510.59;5009182;28;20072;-45
2022/07/06 02:28:13;;;;;;;7.95;5.60;;;;;;;13.05;68.19;102507.91;5009956;28;20128;-46
2022/07/06 02:30:38;;;;;;;8.25;5.70;;;;;;;13.02;68.32;102513.03;5010440;28;20045;-46
2022/07/06 02:33:03;;;;;;;7.50;5.22;;;;;;;13.01;68.03;102508.63;5008388;28;20036;-46
2022/07/06 02:35:29;;;;;;;8.77;5.20;;;;;;;13.00;68.20;102512.03;5009147;28;20036;-46
2022/07/06 02:37:54;;;;;;;8.45;5.10;;;;;;;12.95;68.31;102513.59;5002432;28;20026;-47
2022/07/06 02:40:20;;;;;;;8.18;5.20;;;;;;;12.94;68.70;102506.56;5008878;28;20025;-47
2022/07/06 02:42:45;;;;;;;8.80;6.03;;;;;;;12.91;68.73;102506.47;5009152;28;20025;-46
2022/07/06 02:45:11;;;;;;;8.20;5.28;;;;;;;12.92;68.51;102510.88;5010135;28;20375;-46
2022/07/06 02:47:37;;;;;;;8.48;5.70;;;;;;;12.89;69.04;102508.13;5009258;28;20432;-47
2022/07/06 02:50:03;;;;;;;8.02;5.70;;;;;;;12.86;68.97;102505.34;5008756;28;20184;-47
2022/07/06 02:52:29;;;;;;;7.47;5.30;;;;;;;12.85;68.65;102507.09;5009304;28;20038;-49
2022/07/06 02:54:54;;;;;;;9.32;5.57;;;;;;;12.83;68.75;102505.25;5009002;28;20029;-49
2022/07/06 02:57:20;;;;;;;8.43;5.55;;;;;;;12.80;68.82;102510.34;5008039;28;20041;-49
2022/07/06 02:59:45;;;;;;;8.20;5.32;;;;;;;12.78;68.25;102518.13;5008913;28;20565;-46
2022/07/06 03:02:11;;;;;;;7.13;5.28;;;;;;;12.79;68.40;102521.63;5009340;28;20029;-46
2022/07/06 03:04:36;;;;;;;6.72;5.25;;;;;;;12.77;68.56;102513.72;5008402;28;20080;-46
2022/07/06 03:07:02;;;;;;;8.93;5.53;;;;;;;12.76;68.93;102513.66;5009922;28;20042;-48
2022/07/06 03:09:27;;;;;;;8.32;5.28;;;;;;;12.75;69.05;102519.75;5008005;28;20045;-46
2022/07/06 03:11:53;;;;;;;9.32;5.28;;;;;;;12.74;68.59;102517.94;5007637;28;20109;-46
2022/07/06 03:14:19;;;;;;;7.78;5.15;;;;;;;12.70;68.77;102517.81;5008024;28;20026;-46
2022/07/06 03:16:44;;;;;;;8.82;5.50;;;;;;;12.68;69.05;102521.19;5009874;28;20030;-47
2022/07/06 03:19:09;;;;;;;8.50;5.25;;;;;;;12.64;69.08;102522.81;5009279;28;20029;-46
2022/07/06 03:21:35;;;;;;;7.13;5.35;;;;;;;12.62;69.04;102520.94;5009993;28;20515;-46
2022/07/06 03:24:00;;;;;;;6.43;4.80;;;;;;;12.56;69.15;102521.59;5004678;28;20053;-46
2022/07/06 03:26:25;;;;;;;7.97;5.72;;;;;;;12.55;69.38;102521.53;5008919;28;20113;-46
2022/07/06 03:28:51;;;;;;;8.77;5.75;;;;;;;12.52;69.52;102527.50;5008560;28;20028;-45
2022/07/06 03:31:16;;;;;;;7.75;5.43;;;;;;;12.50;69.63;102527.44;5009685;28;20025;-45
2022/07/06 03:33:41;;;;;;;7.43;5.30;;;;;;;12.50;69.62;102537.03;5009732;28;20034;-46
2022/07/06 03:36:07;;;;;;;8.13;5.25;;;;;;;12.46;70.33;102528.13;5009675;28;20071;-46
2022/07/06 03:38:33;;;;;;;8.35;5.18;;;;;;;12.48;70.42;102533.44;5007192;28;20117;-46
2022/07/06 03:40:58;;;;;;;7.28;5.22;;;;;;;12.48;70.57;102525.59;5006673;28;20034;-46
2022/07/06 03:43:23;;;;;;;7.80;4.93;;;;;;;12.47;70.74;102526.41;5006330;28;20030;-46
2022/07/06 03:45:49;;;;;;;7.78;5.40;;;;;;;12.47;70.69;102515.94;5009644;28;20029;-48
2022/07/06 03:48:14;;;;;;;8.02;5.50;;;;;;;12.47;70.43;102522.09;5006132;28;20133;-46
2022/07/06 03:50:39;;;;;;;7.72;5.40;;;;;;;12.48;70.78;102526.50;5008664;28;20029;-47
2022/07/06 03:53:05;;;;;;;9.38;5.68;;;;;;;12.48;70.53;102518.66;5007881;28;20033;-46
2022/07/06 03:55:30;;;;;;;9.73;5.78;;;;;;;12.47;70.74;102523.78;5009036;28;20034;-46
2022/07/06 03:57:55;;;;;;;8.45;5.75;;;;;;;12.49;70.68;102527.38;5009576;28;20026;-46
2022/07/06 04:00:21;;;;;;;9.32;5.70;;;;;;;12.47;70.85;102523.78;5004993;28;20026;-47
2022/07/06 04:02:46;;;;;;;9.00;5.82;;;;;;;12.46;71.21;102516.78;5003625;28;20448;-47
2022/07/06 04:05:11;;;;;;;8.02;5.28;;;;;;;12.48;70.82;102520.34;5006178;28;20092;-46
2022/07/06 04:07:37;;;;;;;9.43;5.68;;;;;;;12.48;71.33;102522.97;5008351;28;20034;-46
2022/07/06 04:10:02;;;;;;;9.13;5.35;;;;;;;12.50;71.06;102521.34;5006169;28;20030;-48
2022/07/06 04:12:28;;;;;;;8.90;5.40;;;;;;;12.51;70.73;102525.72;5007952;28;20125;-46
2022/07/06 04:14:56;;;;;;;8.27;5.47;;;;;;;12.49;71.33;102522.16;5010425;28;20042;-47
2022/07/06 04:20:06;;;;;;;10.60;5.60;;;;;;;12.52;71.07;102523.16;5012800;28;20116;-45
2022/07/06 04:22:31;;;;;;;9.00;5.85;;;;;;;12.51;70.80;102512.63;5011746;28;20034;-48
2022/07/06 04:24:56;;;;;;;12.60;5.97;;;;;;;12.52;71.17;102511.81;5011592;28;20590;-46
2022/07/06 04:27:22;;;;;;;8.32;5.68;;;;;;;12.51;71.08;102505.72;5012116;28;20030;-46
2022/07/06 04:29:47;;;;;;;8.35;5.65;;;;;;;12.48;71.51;102505.59;5011500;28;20064;-46
2022/07/06 04:32:12;;;;;;;9.75;6.25;;;;;;;12.49;70.81;102506.47;5012488;28;20030;-46
2022/07/06 04:34:37;;;;;;;10.13;5.82;;;;;;;12.49;71.19;102503.84;5012247;28;20084;-46
2022/07/06 04:37:03;;;;;;;9.20;5.75;;;;;;;12.49;71.44;102511.69;5010426;28;20481;-45
2022/07/06 04:39:30;;;;;;;8.95;5.50;;;;;;;12.48;71.32;102504.66;5011819;28;20036;-46
2022/07/06 04:41:56;;;;;;;9.98;6.38;;;;;;;12.46;71.54;102504.59;5012573;28;20029;-47
2022/07/06 04:44:21;;;;;;;9.30;5.65;;;;;;;12.47;71.06;102502.88;5009017;28;20038;-46
2022/07/06 04:46:46;;;;;;;8.57;5.95;;;;;;;12.47;71.33;102497.63;5012478;28;20072;-45
2022/07/06 04:49:11;;;;;;;9.65;5.82;;;;;;;12.45;72.12;102509.78;5011107;28;20026;-46
2022/07/06 04:51:37;;;;;;;8.93;5.95;;;;;;;12.45;71.78;102512.38;5010993;28;20050;-46
2022/07/06 04:54:04;;;;;;;8.30;6.00;;;;;;;12.42;72.91;102510.53;5012104;28;20096;-46
2022/07/06 04:56:29;;;;;;;8.02;5.60;;;;;;;12.41;72.87;102524.44;5010476;28;20028;-46
2022/07/06 04:58:55;;;;;;;9.82;6.22;;;;;;;12.41;72.71;102514.00;5011503;28;20018;-46
2022/07/06 05:01:20;;;;;;;8.32;5.28;;;;;;;12.41;72.79;102502.63;5009749;28;20085;-46
2022/07/06 05:03:45;;;;;;;7.95;5.97;;;;;;;12.41;73.12;102508.75;5010773;28;20481;-46
2022/07/06 05:06:11;;;;;;;9.13;6.18;;;;;;;12.41;73.68;102508.75;5010650;28;20038;-45
2022/07/06 05:08:36;;;;;;;9.02;5.45;;;;;;;12.44;73.03;102511.50;5010088;28;20761;-46
2022/07/06 05:11:01;;;;;;;7.20;5.22;;;;;;;12.46;73.56;102514.19;5009507;28;20486;-46
2022/07/06 05:13:26;;;;;;;8.93;5.43;;;;;;;12.48;74.19;102515.13;5011408;28;20033;-48
2022/07/06 05:15:52;;;;;;;7.88;5.40;;;;;;;12.51;74.38;102528.31;5011522;28;20478;-46
2022/07/06 05:18:17;;;;;;;8.05;5.45;;;;;;;12.52;74.35;102524.88;5009900;28;20105;-46
2022/07/06 05:20:44;;;;;;;9.43;5.50;;;;;;;12.55;74.47;102535.47;5010533;28;20377;-46
2022/07/06 05:23:09;;;;;;;8.80;5.18;;;;;;;12.56;75.60;102533.75;5011852;28;20436;-46
2022/07/06 05:25:35;;;;;;;9.68;5.63;;;;;;;12.57;75.81;102536.44;5010925;28;20032;-47
2022/07/06 05:28:01;;;;;;;9.32;5.50;;;;;;;12.61;75.82;102535.72;5009288;28;20090;-46
2022/07/06 05:30:26;;;;;;;9.05;5.53;;;;;;;12.62;76.58;102527.06;5011722;28;20030;-46
2022/07/06 05:32:51;;;;;;;9.43;6.03;;;;;;;12.65;75.87;102540.25;5009761;28;20025;-46
2022/07/06 05:35:17;;;;;;;8.10;5.38;;;;;;;12.67;75.77;102530.78;5010808;28;20033;-46
2022/07/06 05:37:42;;;;;;;8.45;5.38;;;;;;;12.69;76.76;102529.09;5016236;28;20161;-48
2022/07/06 05:40:08;;;;;;;7.65;5.57;;;;;;;12.73;77.10;102531.84;5010788;28;20026;-46
2022/07/06 05:42:34;;;;;;;8.55;5.88;;;;;;;12.76;77.37;102532.88;5009455;28;20026;-46
2022/07/06 05:44:59;;;;;;;7.82;5.28;;;;;;;12.81;77.48;102535.69;5008710;28;20632;-46
2022/07/06 05:50:14;;;;;;;7.85;5.10;;;;;;;12.87;78.91;102542.09;5008478;28;20045;-46
2022/07/06 05:52:54;;;;;;;7.13;4.80;;;;;;;12.93;78.44;102544.03;5011344;28;20038;-45
2022/07/06 05:55:19;;;;;;;6.55;4.60;;;;;;;12.99;78.23;102546.00;5015578;28;20029;-46
2022/07/06 05:57:45;;;;;;;7.43;4.57;;;;;;;13.05;78.93;102544.53;5011629;28;20447;-45
2022/07/06 06:00:10;;;;;;;6.70;4.72;;;;;;;13.12;78.75;102542.16;5011330;28;20558;-47
2022/07/06 06:02:37;;;;;;;10.85;4.47;;;;;;;13.19;78.36;102552.97;5012825;28;20552;-47
2022/07/06 06:05:04;;;;;;;6.90;3.92;;;;;;;13.29;79.46;102548.09;5004696;28;20409;-46
2022/07/06 06:07:29;;;;;;;6.28;4.07;;;;;;;13.38;77.78;102548.47;5015844;28;20065;-46
2022/07/06 06:09:54;;;;;;;7.38;4.05;;;;;;;13.46;78.47;102548.78;5011564;28;20069;-46
2022/07/06 06:12:20;;;;;;;8.32;3.88;;;;;;;13.57;78.57;102548.38;5007887;28;20787;-46
2022/07/06 06:14:45;;;;;;;5.90;3.67;;;;;;;13.69;79.74;102550.56;5010606;28;20041;-45
2022/07/06 06:17:10;;;;;;;6.72;3.70;;;;;;;13.80;78.54;102544.84;5009704;28;20080;-46
2022/07/06 06:19:36;;;;;;;6.00;3.40;;;;;;;13.92;77.50;102550.56;5009314;28;20064;-46
2022/07/06 06:22:02;;;;;;;6.47;3.20;;;;;;;14.02;77.40;102551.75;5010539;28;20129;-45
2022/07/06 06:24:28;;;;;;;6.35;3.53;;;;;;;14.10;75.74;102545.09;5010733;28;20037;-46
2022/07/06 06:26:53;;;;;;;7.65;3.67;;;;;;;14.15;77.88;102545.25;5008391;28;20465;-46
2022/07/06 06:29:18;;;;;;;6.82;3.80;;;;;;;14.20;77.47;102551.56;5010962;28;20397;-46
2022/07/06 06:31:44;;;;;;;8.10;3.83;;;;;;;14.23;75.61;102549.94;5010303;28;20061;-45
2022/07/06 06:34:09;;;;;;;7.13;3.33;;;;;;;14.26;76.17;102546.53;5009769;28;20421;-45
2022/07/06 06:36:34;;;;;;;8.30;3.60;;;;;;;14.30;76.29;102539.69;5010320;28;20027;-45
2022/07/06 06:39:00;;;;;;;5.68;2.92;;;;;;;14.32;75.82;102549.38;5015114;28;20022;-45
2022/07/06 06:41:25;;;;;;;7.40;3.63;;;;;;;14.35;75.34;102552.13;5015245;28;20079;-46
2022/07/06 06:43:50;;;;;;;7.28;3.67;;;;;;;14.40;75.26;102554.91;5011882;28;20098;-45
2022/07/06 06:46:16;;;;;;;8.55;3.72;;;;;;;14.43;75.16;102553.25;5015052;28;20065;-45
2022/07/06 06:48:41;;;;;;;8.38;4.53;;;;;;;14.49;75.92;102554.31;5009888;28;20096;-46
2022/07/06 06:51:06;;;;;;;7.25;4.30;;;;;;;14.54;75.43;102558.00;5009510;28;20022;-45
2022/07/06 06:53:32;;;;;;;8.15;3.75;;;;;;;14.59;75.07;102551.19;5010592;28;20026;-45
2022/07/06 06:55:57;;;;;;;6.10;3.80;;;;;;;14.62;75.21;102553.06;5010879;28;20025;-47
2022/07/06 06:58:22;;;;;;;5.63;3.50;;;;;;;14.66;74.74;102552.34;5010413;28;20485;-45
2022/07/06 07:00:48;;;;;;;7.00;4.10;;;;;;;14.71;75.18;102556.00;5009710;28;20029;-45
2022/07/06 07:03:13;;;;;;;5.35;3.20;;;;;;;14.75;74.38;102560.50;5010346;28;20026;-47
2022/07/06 07:05:39;;;;;;;6.78;3.95;;;;;;;14.79;74.52;102565.03;5009647;28;20142;-45
2022/07/06 07:08:04;;;;;;;10.55;3.92;;;;;;;14.83;73.74;102566.00;5009580;28;20121;-47
2022/07/06 07:10:30;;;;;;;7.20;3.40;;;;;;;14.86;73.50;102566.09;5009859;28;20036;-45
2022/07/06 07:12:55;;;;;;;6.32;3.20;;;;;;;14.88;73.26;102567.94;5009097;28;20100;-46
2022/07/06 07:15:20;;;;;;;7.28;3.40;;;;;;;14.89;72.95;102561.88;5009902;28;20499;-45
2022/07/06 07:17:46;;;;;;;7.15;2.90;;;;;;;14.90;72.55;102568.00;5010246;28;20501;-45
2022/07/06 07:20:11;;;;;;;5.22;3.03;;;;;;;14.90;72.98;102573.25;5009457;28;20041;-45
2022/07/06 07:22:37;;;;;;;5.30;2.78;;;;;;;14.92;73.57;102568.97;5009315;28;20030;-45
2022/07/06 07:25:03;;;;;;;5.22;3.00;;;;;;;14.95;73.88;102572.56;5000224;28;20022;-46
2022/07/06 07:27:29;;;;;;;6.72;3.50;;;;;;;15.05;73.19;102570.25;5008623;28;20116;-55
2022/07/06 07:29:54;;;;;;;5.88;3.72;;;;;;;15.12;72.67;102567.88;5010588;28;20492;-56
2022/07/06 07:32:19;;;;;;;5.68;3.30;;;;;;;15.23;73.03;102569.94;5009295;28;20029;-55
2022/07/06 07:34:45;;;;;;;8.27;3.22;;;;;;;15.31;72.38;102571.09;5010040;28;20518;-55
2022/07/06 07:37:10;;;;;;;7.50;3.55;;;;;;;15.42;72.51;102571.41;5009945;28;20612;-55
2022/07/06 07:39:36;;;;;;;5.45;2.38;;;;;;;15.50;71.06;102574.28;5010188;28;20022;-55
2022/07/06 07:42:01;;;;;;;5.30;1.98;;;;;;;15.60;71.18;102571.13;5009508;28;20053;-56
2022/07/06 07:44:27;;;;;;;4.60;1.50;;;;;;;15.68;69.61;102566.97;5010076;28;20448;-56
2022/07/06 07:46:53;;;;;;;4.20;1.85;;;;;;;15.76;69.37;102565.47;5010008;28;20030;-56
2022/07/06 07:49:20;;;;;;;5.35;1.52;;;;;;;15.84;68.54;102564.84;5010422;28;20026;-55
2022/07/06 07:51:46;;;;;;;3.85;1.60;;;;;;;15.94;68.96;102570.41;5012797;28;20029;-55
2022/07/06 07:54:12;;;;;;;4.95;1.60;;;;;;;16.05;68.85;102573.34;5013215;28;20037;-56
2022/07/06 07:56:40;;;;;;;2.88;1.38;;;;;;;16.10;68.61;102570.84;5014021;28;20030;-46
2022/07/06 07:59:06;;;;;;;4.65;1.48;;;;;;;16.19;69.38;102570.22;5013626;28;20026;-45
2022/07/06 08:01:31;;;;;;;4.80;1.50;;;;;;;16.29;69.17;102561.72;5012772;28;20025;-46
2022/07/06 08:03:57;;;;;;;4.63;1.50;;;;;;;16.36;67.64;102562.81;5012833;28;20025;-46
2022/07/06 08:06:22;;;;;;;3.67;1.40;;;;;;;16.41;67.82;102553.28;5011534;28;20551;-46
2022/07/06 08:08:48;;;;;;;4.28;1.30;;;;;;;16.50;68.17;102549.16;5013280;28;20026;-46
2022/07/06 08:11:13;;;;;;;4.35;1.40;;;;;;;16.59;67.38;102545.00;5013390;28;20108;-46
2022/07/06 08:13:38;;;;;;;3.45;1.55;;;;;;;16.66;66.75;102541.66;5013461;28;20152;-46
2022/07/06 08:16:04;;;;;;;4.70;1.55;;;;;;;16.75;67.84;102544.53;5012701;28;20026;-47
2022/07/06 08:18:29;;;;;;;6.43;1.80;;;;;;;16.82;65.67;102548.22;5012552;28;20034;-49
2022/07/06 08:20:56;;;;;;;5.03;1.80;;;;;;;16.96;68.23;102552.13;5006538;28;20033;-47
2022/07/06 08:23:22;;;;;;;3.60;1.33;;;;;;;16.97;67.64;102543.34;5013282;28;20413;-51
2022/07/06 08:25:47;;;;;;;5.28;1.52;;;;;;;17.07;67.80;102543.59;5013296;28;20026;-50
2022/07/06 08:28:12;;;;;;;4.40;1.45;;;;;;;17.15;66.64;102555.19;5013187;28;20026;-55
2022/07/06 08:30:38;;;;;;;5.28;2.10;;;;;;;17.21;64.65;102550.06;5012462;28;20032;-55
2022/07/06 08:33:03;;;;;;;4.13;1.90;;;;;;;17.25;64.59;102551.00;5013164;28;20563;-55
2022/07/06 08:35:29;;;;;;;5.22;1.80;;;;;;;17.25;62.80;102540.47;5013066;28;20033;-55
2022/07/06 08:37:54;;;;;;;3.97;1.80;;;;;;;17.26;63.91;102540.50;5011930;28;20022;-55
2022/07/06 08:40:19;;;;;;;5.68;2.00;;;;;;;17.31;64.52;102546.78;5012892;28;20429;-55
2022/07/06 08:42:48;;;;;;;3.50;1.70;;;;;;;17.33;62.46;102542.44;5013070;28;20485;-55
2022/07/06 08:45:14;;;;;;;4.50;1.73;;;;;;;17.39;64.92;102541.69;5011992;28;20033;-55
2022/07/06 08:47:41;;;;;;;5.00;1.75;;;;;;;17.47;63.04;102548.03;5012833;28;20300;-56
2022/07/06 08:50:08;;;;;;;6.15;1.70;;;;;;;17.53;62.43;102539.38;5012514;28;20485;-55
2022/07/06 08:52:34;;;;;;;3.90;1.70;;;;;;;17.60;63.27;102536.00;5012034;28;20041;-55
2022/07/06 08:55:00;;;;;;;6.68;2.25;;;;;;;17.67;63.82;102537.00;5012223;28;20025;-55
2022/07/06 08:57:27;;;;;;;4.32;1.92;;;;;;;17.77;64.07;102532.84;5012935;28;20026;-55
2022/07/06 08:59:52;;;;;;;3.45;1.67;;;;;;;17.88;62.82;102528.69;5012009;28;20022;-55
2022/07/06 09:02:18;;;;;;;3.28;1.20;;;;;;;17.96;63.16;102534.13;5011341;28;20030;-55
2022/07/06 09:04:46;;;;;;;3.95;1.48;;;;;;;18.03;62.72;102531.66;5011630;28;20053;-56
2022/07/06 09:07:11;;;;;;;4.35;1.92;;;;;;;18.06;61.87;102528.16;5012568;28;20026;-55
2022/07/06 09:09:37;;;;;;;4.22;1.52;;;;;;;18.11;63.29;102529.16;5012743;28;20018;-55
2022/07/06 09:12:03;;;;;;;5.20;1.88;;;;;;;18.18;61.27;102524.91;5010828;28;20408;-55
2022/07/06 09:14:29;;;;;;;4.28;1.77;;;;;;;18.23;58.59;102528.50;5011004;28;20572;-55
2022/07/06 09:17:07;;;;;;;4.25;1.55;;;;;;;18.25;58.54;102521.53;5012310;28;20022;-55
2022/07/06 09:19:34;;;;;;;3.30;1.50;;;;;;;18.33;61.89;102529.56;5011396;28;20468;-55
2022/07/06 09:22:00;;;;;;;3.95;1.50;;;;;;;18.39;60.92;102521.75;5012393;28;20066;-55
2022/07/06 09:24:26;;;;;;;3.50;1.65;;;;;;;18.40;60.09;102519.16;5011317;28;20179;-55
2022/07/06 09:26:55;;;;;;;5.32;1.70;;;;;;;18.40;59.31;102534.97;5012307;28;20022;-54
2022/07/06 09:29:31;;;;;;;3.58;1.63;;;;;;;18.41;58.68;102530.63;5011303;28;20045;-54
2022/07/06 09:32:01;;;;;;;5.53;1.60;;;;;;;18.44;57.04;102533.31;4999657;28;20045;-55
2022/07/06 09:34:43;;;;;;;3.90;1.40;;;;;;;18.47;57.37;102536.00;5023689;28;20040;-55
2022/07/06 09:37:08;;;;;;;4.35;1.63;;;;;;;18.54;58.27;102539.66;5004403;28;20018;-55
2022/07/06 09:39:34;;;;;;;4.78;1.60;;;;;;;18.63;57.84;102544.19;5013601;28;20029;-54
2022/07/06 09:42:03;;;;;;;4.05;1.80;;;;;;;18.72;58.63;102537.31;5017842;28;20030;-55
2022/07/06 09:44:33;;;;;;;5.07;1.67;;;;;;;18.73;57.86;102539.09;5011035;28;20044;-55
2022/07/06 09:47:05;;;;;;;3.58;1.70;;;;;;;18.74;58.07;102537.31;5011719;28;20053;-56
2022/07/06 09:49:30;;;;;;;4.90;1.63;;;;;;;18.77;58.15;102547.97;5011595;28;20080;-55
2022/07/06 09:51:59;;;;;;;3.65;1.33;;;;;;;18.77;58.28;102542.69;5011726;28;20131;-55
2022/07/06 09:54:24;;;;;;;8.65;1.80;;;;;;;18.80;58.31;102550.66;5011291;28;20104;-55
2022/07/06 09:56:51;;;;;;;3.05;1.40;;;;;;;18.78;56.71;102541.81;5011955;28;20125;-55
2022/07/06 09:59:19;;;;;;;3.17;1.40;;;;;;;18.80;55.47;102545.38;5010018;28;20037;-56
2022/07/06 10:01:45;;;;;;;3.35;1.50;;;;;;;18.79;56.06;102545.34;5011614;28;20120;-56
2022/07/06 10:04:12;;;;;;;6.25;1.20;;;;;;;18.78;56.87;102544.44;5011125;28;20121;-55
2022/07/06 10:06:39;;;;;;;3.88;1.30;;;;;;;18.80;56.42;102542.72;5011581;28;20087;-55
2022/07/06 10:09:06;;;;;;;3.50;1.30;;;;;;;18.79;56.30;102542.72;5011185;28;20030;-55
2022/07/06 10:11:34;;;;;;;4.20;1.50;;;;;;;18.82;56.38;102545.41;5011375;28;20030;-55
2022/07/06 10:14:03;;;;;;;3.80;1.55;;;;;;;18.82;56.30;102548.91;5009467;28;20030;-55
2022/07/06 10:16:28;;;;;;;4.10;1.50;;;;;;;18.82;53.44;102550.69;5011338;28;20030;-55
2022/07/06 10:18:54;;;;;;;4.38;1.55;;;;;;;18.87;56.14;102554.31;5011148;28;20033;-55
2022/07/06 10:21:22;;;;;;;3.95;1.50;;;;;;;18.89;56.38;102548.19;5011198;28;20433;-56
2022/07/06 10:23:49;;;;;;;4.03;1.55;;;;;;;18.92;55.37;102547.34;5009589;28;20026;-56
2022/07/06 10:26:16;;;;;;;2.15;1.02;;;;;;;18.90;54.67;102555.25;5010206;28;20053;-56
2022/07/06 10:28:42;;;;;;;2.80;1.10;;;;;;;18.90;52.93;102549.06;5009783;28;20519;-55
2022/07/06 10:31:09;;;;;;;3.03;1.20;;;;;;;18.89;54.59;102545.53;5009750;28;20105;-56
2022/07/06 10:33:35;;;;;;;3.67;1.50;;;;;;;18.91;53.77;102548.22;5010970;28;20025;-56
2022/07/06 11:02:54;;;;;;;4.50;1.25;;;;;;;19.25;49.83;102539.06;5010519;28;20033;-55
2022/07/06 11:05:40;;;;;;;3.70;1.02;;;;;;;19.28;52.84;102538.22;5009979;28;20747;-55
2022/07/06 11:08:08;;;;;;;3.25;1.00;;;;;;;19.26;53.36;102535.56;5009816;28;20033;-55
2022/07/06 11:10:47;;;;;;;3.10;1.25;;;;;;;19.31;53.96;102534.75;5009828;28;20038;-55
2022/07/06 11:13:28;;;;;;;3.15;1.15;;;;;;;19.38;53.82;102536.56;5008672;28;20045;-55
2022/07/06 11:16:02;;;;;;;3.72;1.15;;;;;;;19.40;55.30;102542.78;5009679;28;20397;-56
2022/07/06 11:18:27;;;;;;;2.38;1.00;;;;;;;19.46;53.86;102550.81;5010281;28;20022;-55
2022/07/06 11:21:15;;;;;;;3.20;1.05;;;;;;;19.51;54.48;102541.19;5009434;28;20481;-56
2022/07/06 11:23:41;;;;;;;3.22;1.15;;;;;;;19.49;48.45;102534.09;5007857;28;20401;-55
2022/07/06 11:26:08;;;;;;;4.57;1.05;;;;;;;19.49;50.93;102527.03;5010462;28;20029;-55
2022/07/06 11:28:33;;;;;;;5.25;1.55;;;;;;;19.54;53.11;102529.78;5009254;28;20033;-49
2022/07/06 11:30:59;;;;;;;2.20;1.20;;;;;;;19.60;53.91;102533.38;5009658;28;20062;-51
2022/07/06 11:33:32;;;;;;;3.92;1.23;;;;;;;19.70;53.74;102537.03;5010173;28;20385;-48
2022/07/06 11:36:23;;;;;;;2.75;1.20;;;;;;;19.83;53.87;102538.09;5009159;28;20515;-50
2022/07/06 11:38:50;;;;;;;2.83;1.10;;;;;;;19.91;51.34;102524.97;5006421;28;20037;-51
2022/07/06 11:41:16;;;;;;;2.80;1.10;;;;;;;19.97;53.26;102518.00;5009986;28;20392;-50
2022/07/06 11:43:46;;;;;;;3.28;1.10;;;;;;;20.05;51.31;102509.25;5009883;28;20026;-50
2022/07/06 11:46:19;;;;;;;3.35;1.10;;;;;;;20.02;47.70;102507.47;5009042;28;20030;-51
2022/07/06 11:48:53;;;;;;;3.25;1.10;;;;;;;20.09;51.20;102500.47;5009908;28;20597;-51
2022/07/06 11:51:19;;;;;;;2.63;1.10;;;;;;;20.17;49.71;102498.78;5009089;28;20112;-51
2022/07/06 11:53:50;;;;;;;5.43;1.00;;;;;;;20.37;53.50;102498.09;5008693;28;20117;-50